sensor_id;sensor_type;location;lat;lon;timestamp;P1;durP1;ratioP1;P2;durP2;ratioP2
13475;SDS011;6810;63.824;20.288;2023-07-31T00:00:18;7.50;;;6.40;;
13475;SDS011;6810;63.824;20.288;2023-07-31T00:02:46;7.83;;;7.03;;
13475;SDS011;6810;63.824;20.288;2023-07-31T00:05:13;6.83;;;6.10;;
13475;SDS011;6810;63.824;20.288;2023-07-31T00:07:40;6.53;;;5.93;;
13475;SDS011;6810;63.824;20.288;2023-07-31T00:10:07;8.50;;;6.20;;
13475;SDS011;6810;63.824;20.288;2023-07-31T00:12:35;7.93;;;6.43;;
13475;SDS011;6810;63.824;20.288;2023-07-31T00:15:02;7.17;;;6.00;;
13475;SDS011;6810;63.824;20.288;2023-07-31T00:17:30;6.63;;;6.03;;
13475;SDS011;6810;63.824;20.288;2023-07-31T00:19:57;6.53;;;5.93;;
13475;SDS011;6810;63.824;20.288;2023-07-31T00:22:24;6.17;;;5.57;;
13475;SDS011;6810;63.824;20.288;2023-07-31T00:24:51;7.00;;;6.10;;
13475;SDS011;6810;63.824;20.288;2023-07-31T00:27:18;6.23;;;5.63;;
13475;SDS011;6810;63.824;20.288;2023-07-31T00:29:45;6.37;;;5.77;;
13475;SDS011;6810;63.824;20.288;2023-07-31T00:32:12;6.90;;;6.10;;
13475;SDS011;6810;63.824;20.288;2023-07-31T00:34:39;6.93;;;5.73;;
13475;SDS011;6810;63.824;20.288;2023-07-31T00:37:07;6.40;;;5.77;;
13475;SDS011;6810;63.824;20.288;2023-07-31T00:39:34;6.67;;;5.77;;
13475;SDS011;6810;63.824;20.288;2023-07-31T00:42:02;6.57;;;5.93;;
13475;SDS011;6810;63.824;20.288;2023-07-31T00:44:29;7.70;;;6.40;;
13475;SDS011;6810;63.824;20.288;2023-07-31T00:46:56;7.00;;;6.30;;
13475;SDS011;6810;63.824;20.288;2023-07-31T00:49:25;7.13;;;5.93;;
13475;SDS011;6810;63.824;20.288;2023-07-31T00:51:55;6.67;;;6.07;;
13475;SDS011;6810;63.824;20.288;2023-07-31T00:54:24;7.37;;;6.67;;
13475;SDS011;6810;63.824;20.288;2023-07-31T00:56:52;7.47;;;6.70;;
13475;SDS011;6810;63.824;20.288;2023-07-31T00:59:21;7.17;;;6.40;;
13475;SDS011;6810;63.824;20.288;2023-07-31T01:01:48;7.60;;;6.90;;
13475;SDS011;6810;63.824;20.288;2023-07-31T01:04:16;6.97;;;6.37;;
13475;SDS011;6810;63.824;20.288;2023-07-31T01:06:45;7.10;;;6.50;;
13475;SDS011;6810;63.824;20.288;2023-07-31T01:12:04;8.70;;;7.00;;
13475;SDS011;6810;63.824;20.288;2023-07-31T01:14:34;7.93;;;6.70;;
13475;SDS011;6810;63.824;20.288;2023-07-31T01:17:01;7.27;;;6.67;;
13475;SDS011;6810;63.824;20.288;2023-07-31T01:19:28;7.77;;;6.97;;
13475;SDS011;6810;63.824;20.288;2023-07-31T01:21:59;7.70;;;6.93;;
13475;SDS011;6810;63.824;20.288;2023-07-31T01:27:28;8.23;;;7.20;;
13475;SDS011;6810;63.824;20.288;2023-07-31T01:30:00;7.50;;;6.80;;
13475;SDS011;6810;63.824;20.288;2023-07-31T01:32:29;7.53;;;6.60;;
13475;SDS011;6810;63.824;20.288;2023-07-31T01:34:57;7.20;;;6.50;;
13475;SDS011;6810;63.824;20.288;2023-07-31T01:37:29;7.83;;;7.00;;
13475;SDS011;6810;63.824;20.288;2023-07-31T01:39:59;8.17;;;7.00;;
13475;SDS011;6810;63.824;20.288;2023-07-31T01:42:25;7.20;;;6.60;;
13475;SDS011;6810;63.824;20.288;2023-07-31T01:44:52;7.20;;;6.60;;
13475;SDS011;6810;63.824;20.288;2023-07-31T01:47:19;7.43;;;6.60;;
13475;SDS011;6810;63.824;20.288;2023-07-31T01:49:46;6.60;;;6.00;;
13475;SDS011;6810;63.824;20.288;2023-07-31T01:52:13;9.37;;;6.60;;
13475;SDS011;6810;63.824;20.288;2023-07-31T01:54:41;7.13;;;6.43;;
13475;SDS011;6810;63.824;20.288;2023-07-31T01:57:08;7.97;;;6.73;;
13475;SDS011;6810;63.824;20.288;2023-07-31T01:59:35;7.03;;;6.33;;
13475;SDS011;6810;63.824;20.288;2023-07-31T02:02:02;6.70;;;6.10;;
13475;SDS011;6810;63.824;20.288;2023-07-31T02:04:29;7.33;;;6.10;;
13475;SDS011;6810;63.824;20.288;2023-07-31T02:06:56;7.13;;;5.90;;
13475;SDS011;6810;63.824;20.288;2023-07-31T02:09:23;7.50;;;6.70;;
13475;SDS011;6810;63.824;20.288;2023-07-31T02:11:51;6.83;;;6.17;;
13475;SDS011;6810;63.824;20.288;2023-07-31T02:14:18;7.10;;;6.37;;
13475;SDS011;6810;63.824;20.288;2023-07-31T02:16:45;7.10;;;6.23;;
13475;SDS011;6810;63.824;20.288;2023-07-31T02:19:13;7.60;;;6.03;;
13475;SDS011;6810;63.824;20.288;2023-07-31T02:21:40;6.40;;;5.80;;
13475;SDS011;6810;63.824;20.288;2023-07-31T02:24:07;8.77;;;6.70;;
13475;SDS011;6810;63.824;20.288;2023-07-31T02:26:34;6.17;;;5.67;;
13475;SDS011;6810;63.824;20.288;2023-07-31T02:29:01;7.67;;;6.43;;
13475;SDS011;6810;63.824;20.288;2023-07-31T02:31:29;7.97;;;6.60;;
13475;SDS011;6810;63.824;20.288;2023-07-31T02:33:56;7.27;;;6.37;;
13475;SDS011;6810;63.824;20.288;2023-07-31T02:36:23;6.90;;;6.20;;
13475;SDS011;6810;63.824;20.288;2023-07-31T02:38:50;6.77;;;6.17;;
13475;SDS011;6810;63.824;20.288;2023-07-31T02:41:17;7.47;;;6.67;;
13475;SDS011;6810;63.824;20.288;2023-07-31T02:43:44;6.87;;;6.30;;
13475;SDS011;6810;63.824;20.288;2023-07-31T02:46:11;7.47;;;6.87;;
13475;SDS011;6810;63.824;20.288;2023-07-31T02:48:38;7.23;;;6.53;;
13475;SDS011;6810;63.824;20.288;2023-07-31T02:51:05;7.40;;;6.67;;
13475;SDS011;6810;63.824;20.288;2023-07-31T02:53:32;7.30;;;6.43;;
13475;SDS011;6810;63.824;20.288;2023-07-31T02:55:59;7.17;;;6.47;;
13475;SDS011;6810;63.824;20.288;2023-07-31T02:58:26;7.47;;;6.70;;
13475;SDS011;6810;63.824;20.288;2023-07-31T03:00:54;6.63;;;5.97;;
13475;SDS011;6810;63.824;20.288;2023-07-31T03:03:21;6.87;;;6.17;;
13475;SDS011;6810;63.824;20.288;2023-07-31T03:05:48;7.20;;;6.17;;
13475;SDS011;6810;63.824;20.288;2023-07-31T03:08:15;7.23;;;6.53;;
13475;SDS011;6810;63.824;20.288;2023-07-31T03:10:42;7.67;;;6.90;;
13475;SDS011;6810;63.824;20.288;2023-07-31T03:13:09;7.63;;;6.83;;
13475;SDS011;6810;63.824;20.288;2023-07-31T03:15:36;7.17;;;6.50;;
13475;SDS011;6810;63.824;20.288;2023-07-31T03:18:04;7.87;;;7.10;;
13475;SDS011;6810;63.824;20.288;2023-07-31T03:20:31;7.87;;;7.07;;
13475;SDS011;6810;63.824;20.288;2023-07-31T03:22:58;7.77;;;7.03;;
13475;SDS011;6810;63.824;20.288;2023-07-31T03:25:25;7.27;;;6.57;;
13475;SDS011;6810;63.824;20.288;2023-07-31T03:27:52;7.30;;;6.60;;
13475;SDS011;6810;63.824;20.288;2023-07-31T03:30:19;7.60;;;6.17;;
13475;SDS011;6810;63.824;20.288;2023-07-31T03:32:47;7.30;;;6.67;;
13475;SDS011;6810;63.824;20.288;2023-07-31T03:35:14;7.63;;;6.77;;
13475;SDS011;6810;63.824;20.288;2023-07-31T03:37:42;7.57;;;6.87;;
13475;SDS011;6810;63.824;20.288;2023-07-31T03:40:09;7.93;;;7.13;;
13475;SDS011;6810;63.824;20.288;2023-07-31T03:42:36;8.83;;;7.00;;
13475;SDS011;6810;63.824;20.288;2023-07-31T03:45:04;7.60;;;6.77;;
13475;SDS011;6810;63.824;20.288;2023-07-31T03:47:31;7.93;;;7.13;;
13475;SDS011;6810;63.824;20.288;2023-07-31T03:49:58;9.37;;;7.40;;
13475;SDS011;6810;63.824;20.288;2023-07-31T03:52:26;9.17;;;6.97;;
13475;SDS011;6810;63.824;20.288;2023-07-31T03:54:53;7.10;;;6.40;;
13475;SDS011;6810;63.824;20.288;2023-07-31T03:57:20;7.77;;;6.50;;
13475;SDS011;6810;63.824;20.288;2023-07-31T03:59:47;9.03;;;7.20;;
13475;SDS011;6810;63.824;20.288;2023-07-31T04:02:14;7.60;;;6.90;;
13475;SDS011;6810;63.824;20.288;2023-07-31T04:04:41;6.77;;;6.17;;
13475;SDS011;6810;63.824;20.288;2023-07-31T04:07:09;7.23;;;6.53;;
13475;SDS011;6810;63.824;20.288;2023-07-31T04:09:36;7.83;;;7.10;;
13475;SDS011;6810;63.824;20.288;2023-07-31T04:12:03;7.80;;;7.00;;
13475;SDS011;6810;63.824;20.288;2023-07-31T04:14:30;8.00;;;7.20;;
13475;SDS011;6810;63.824;20.288;2023-07-31T04:16:57;7.60;;;6.93;;
13475;SDS011;6810;63.824;20.288;2023-07-31T04:19:24;8.90;;;7.40;;
13475;SDS011;6810;63.824;20.288;2023-07-31T04:21:51;8.73;;;7.93;;
13475;SDS011;6810;63.824;20.288;2023-07-31T04:24:18;8.07;;;7.27;;
13475;SDS011;6810;63.824;20.288;2023-07-31T04:26:51;9.07;;;7.80;;
13475;SDS011;6810;63.824;20.288;2023-07-31T04:29:19;8.10;;;6.77;;
13475;SDS011;6810;63.824;20.288;2023-07-31T04:31:48;8.07;;;7.03;;
13475;SDS011;6810;63.824;20.288;2023-07-31T04:34:15;7.33;;;6.57;;
13475;SDS011;6810;63.824;20.288;2023-07-31T04:36:42;8.03;;;7.30;;
13475;SDS011;6810;63.824;20.288;2023-07-31T04:39:09;9.60;;;7.07;;
13475;SDS011;6810;63.824;20.288;2023-07-31T04:41:36;7.97;;;7.17;;
13475;SDS011;6810;63.824;20.288;2023-07-31T04:44:03;7.60;;;6.90;;
13475;SDS011;6810;63.824;20.288;2023-07-31T04:46:31;8.27;;;7.47;;
13475;SDS011;6810;63.824;20.288;2023-07-31T04:48:58;8.37;;;6.30;;
13475;SDS011;6810;63.824;20.288;2023-07-31T04:51:25;7.93;;;6.60;;
13475;SDS011;6810;63.824;20.288;2023-07-31T04:53:52;8.83;;;7.23;;
13475;SDS011;6810;63.824;20.288;2023-07-31T04:56:20;8.30;;;6.73;;
13475;SDS011;6810;63.824;20.288;2023-07-31T04:58:47;8.13;;;6.87;;
13475;SDS011;6810;63.824;20.288;2023-07-31T05:01:14;8.50;;;7.23;;
13475;SDS011;6810;63.824;20.288;2023-07-31T05:03:41;8.17;;;6.83;;
13475;SDS011;6810;63.824;20.288;2023-07-31T05:06:08;6.93;;;6.23;;
13475;SDS011;6810;63.824;20.288;2023-07-31T05:08:35;7.47;;;6.50;;
13475;SDS011;6810;63.824;20.288;2023-07-31T05:11:02;7.23;;;6.23;;
13475;SDS011;6810;63.824;20.288;2023-07-31T05:13:30;6.30;;;5.40;;
13475;SDS011;6810;63.824;20.288;2023-07-31T05:15:57;8.03;;;6.13;;
13475;SDS011;6810;63.824;20.288;2023-07-31T05:18:27;6.67;;;5.97;;
13475;SDS011;6810;63.824;20.288;2023-07-31T05:20:55;7.77;;;6.13;;
13475;SDS011;6810;63.824;20.288;2023-07-31T05:23:22;8.73;;;6.80;;
13475;SDS011;6810;63.824;20.288;2023-07-31T05:25:49;6.13;;;5.43;;
13475;SDS011;6810;63.824;20.288;2023-07-31T05:28:16;6.60;;;5.87;;
13475;SDS011;6810;63.824;20.288;2023-07-31T05:30:43;6.43;;;5.83;;
13475;SDS011;6810;63.824;20.288;2023-07-31T05:33:10;5.83;;;5.33;;
13475;SDS011;6810;63.824;20.288;2023-07-31T05:35:40;6.57;;;5.47;;
13475;SDS011;6810;63.824;20.288;2023-07-31T05:38:07;6.87;;;5.50;;
13475;SDS011;6810;63.824;20.288;2023-07-31T05:40:34;6.00;;;5.40;;
13475;SDS011;6810;63.824;20.288;2023-07-31T05:43:02;6.57;;;5.33;;
13475;SDS011;6810;63.824;20.288;2023-07-31T05:45:29;5.73;;;5.13;;
13475;SDS011;6810;63.824;20.288;2023-07-31T05:47:56;5.97;;;5.37;;
13475;SDS011;6810;63.824;20.288;2023-07-31T05:50:23;6.47;;;4.83;;
13475;SDS011;6810;63.824;20.288;2023-07-31T05:52:50;5.07;;;4.57;;
13475;SDS011;6810;63.824;20.288;2023-07-31T05:55:18;4.40;;;4.00;;
13475;SDS011;6810;63.824;20.288;2023-07-31T05:57:45;4.50;;;4.10;;
13475;SDS011;6810;63.824;20.288;2023-07-31T06:00:13;5.00;;;4.50;;
13475;SDS011;6810;63.824;20.288;2023-07-31T06:02:40;5.33;;;4.80;;
13475;SDS011;6810;63.824;20.288;2023-07-31T06:05:08;4.73;;;4.33;;
13475;SDS011;6810;63.824;20.288;2023-07-31T06:07:35;4.77;;;4.17;;
13475;SDS011;6810;63.824;20.288;2023-07-31T06:10:02;6.03;;;4.17;;
13475;SDS011;6810;63.824;20.288;2023-07-31T06:12:32;5.37;;;4.37;;
13475;SDS011;6810;63.824;20.288;2023-07-31T06:15:00;4.93;;;4.40;;
13475;SDS011;6810;63.824;20.288;2023-07-31T06:17:29;4.30;;;4.00;;
13475;SDS011;6810;63.824;20.288;2023-07-31T06:19:56;5.00;;;4.50;;
13475;SDS011;6810;63.824;20.288;2023-07-31T06:22:23;5.90;;;4.07;;
13475;SDS011;6810;63.824;20.288;2023-07-31T06:24:50;4.50;;;4.10;;
13475;SDS011;6810;63.824;20.288;2023-07-31T06:27:18;4.40;;;3.93;;
13475;SDS011;6810;63.824;20.288;2023-07-31T06:29:45;4.87;;;4.20;;
13475;SDS011;6810;63.824;20.288;2023-07-31T06:32:12;4.50;;;4.10;;
13475;SDS011;6810;63.824;20.288;2023-07-31T06:34:39;4.30;;;3.90;;
13475;SDS011;6810;63.824;20.288;2023-07-31T06:37:06;4.80;;;3.87;;
13475;SDS011;6810;63.824;20.288;2023-07-31T06:39:33;4.57;;;4.10;;
13475;SDS011;6810;63.824;20.288;2023-07-31T06:42:00;4.20;;;3.63;;
13475;SDS011;6810;63.824;20.288;2023-07-31T06:44:27;4.67;;;4.13;;
13475;SDS011;6810;63.824;20.288;2023-07-31T06:46:54;4.57;;;3.93;;
13475;SDS011;6810;63.824;20.288;2023-07-31T06:49:21;4.57;;;4.17;;
13475;SDS011;6810;63.824;20.288;2023-07-31T06:51:48;3.97;;;3.57;;
13475;SDS011;6810;63.824;20.288;2023-07-31T06:54:15;4.27;;;3.93;;
13475;SDS011;6810;63.824;20.288;2023-07-31T06:56:43;3.77;;;3.37;;
13475;SDS011;6810;63.824;20.288;2023-07-31T06:59:10;4.00;;;3.60;;
13475;SDS011;6810;63.824;20.288;2023-07-31T07:01:37;4.10;;;3.80;;
13475;SDS011;6810;63.824;20.288;2023-07-31T07:04:04;4.67;;;4.23;;
13475;SDS011;6810;63.824;20.288;2023-07-31T07:06:32;4.37;;;3.50;;
13475;SDS011;6810;63.824;20.288;2023-07-31T07:08:59;4.20;;;3.80;;
13475;SDS011;6810;63.824;20.288;2023-07-31T07:11:26;4.10;;;3.30;;
13475;SDS011;6810;63.824;20.288;2023-07-31T07:13:53;3.93;;;3.50;;
13475;SDS011;6810;63.824;20.288;2023-07-31T07:16:20;4.23;;;3.40;;
13475;SDS011;6810;63.824;20.288;2023-07-31T07:18:47;4.13;;;3.33;;
13475;SDS011;6810;63.824;20.288;2023-07-31T07:21:30;3.50;;;3.20;;
13475;SDS011;6810;63.824;20.288;2023-07-31T07:23:57;5.07;;;3.60;;
13475;SDS011;6810;63.824;20.288;2023-07-31T07:26:24;4.83;;;4.03;;
13475;SDS011;6810;63.824;20.288;2023-07-31T07:28:51;4.90;;;3.30;;
13475;SDS011;6810;63.824;20.288;2023-07-31T07:31:18;5.93;;;3.60;;
13475;SDS011;6810;63.824;20.288;2023-07-31T07:33:45;3.43;;;3.13;;
13475;SDS011;6810;63.824;20.288;2023-07-31T07:36:12;4.23;;;3.83;;
13475;SDS011;6810;63.824;20.288;2023-07-31T07:38:40;4.07;;;3.77;;
13475;SDS011;6810;63.824;20.288;2023-07-31T07:41:08;4.20;;;3.80;;
13475;SDS011;6810;63.824;20.288;2023-07-31T07:43:35;4.23;;;3.37;;
13475;SDS011;6810;63.824;20.288;2023-07-31T07:46:02;4.40;;;3.40;;
13475;SDS011;6810;63.824;20.288;2023-07-31T07:48:29;3.70;;;3.40;;
13475;SDS011;6810;63.824;20.288;2023-07-31T07:50:56;3.90;;;3.30;;
13475;SDS011;6810;63.824;20.288;2023-07-31T07:53:23;3.50;;;3.20;;
13475;SDS011;6810;63.824;20.288;2023-07-31T07:55:50;3.70;;;3.40;;
13475;SDS011;6810;63.824;20.288;2023-07-31T07:58:17;4.50;;;4.10;;
13475;SDS011;6810;63.824;20.288;2023-07-31T08:00:48;3.60;;;3.30;;
13475;SDS011;6810;63.824;20.288;2023-07-31T08:03:17;5.07;;;3.57;;
13475;SDS011;6810;63.824;20.288;2023-07-31T08:05:44;5.00;;;3.60;;
13475;SDS011;6810;63.824;20.288;2023-07-31T08:08:14;3.53;;;3.10;;
13475;SDS011;6810;63.824;20.288;2023-07-31T08:10:43;3.00;;;2.70;;
13475;SDS011;6810;63.824;20.288;2023-07-31T08:13:11;3.03;;;2.80;;
13475;SDS011;6810;63.824;20.288;2023-07-31T08:15:40;3.70;;;3.40;;
13475;SDS011;6810;63.824;20.288;2023-07-31T08:18:09;3.97;;;3.37;;
13475;SDS011;6810;63.824;20.288;2023-07-31T08:20:38;3.53;;;3.23;;
13475;SDS011;6810;63.824;20.288;2023-07-31T08:23:05;3.60;;;3.30;;
13475;SDS011;6810;63.824;20.288;2023-07-31T08:25:34;3.67;;;3.20;;
13475;SDS011;6810;63.824;20.288;2023-07-31T08:28:02;4.57;;;3.50;;
13475;SDS011;6810;63.824;20.288;2023-07-31T08:30:31;3.57;;;3.27;;
13475;SDS011;6810;63.824;20.288;2023-07-31T08:32:58;3.53;;;3.23;;
13475;SDS011;6810;63.824;20.288;2023-07-31T08:35:26;3.40;;;3.20;;
13475;SDS011;6810;63.824;20.288;2023-07-31T08:37:54;3.50;;;3.17;;
13475;SDS011;6810;63.824;20.288;2023-07-31T08:40:21;4.07;;;3.50;;
13475;SDS011;6810;63.824;20.288;2023-07-31T08:42:49;3.60;;;3.30;;
13475;SDS011;6810;63.824;20.288;2023-07-31T08:45:19;3.63;;;3.30;;
13475;SDS011;6810;63.824;20.288;2023-07-31T08:47:50;3.57;;;3.27;;
13475;SDS011;6810;63.824;20.288;2023-07-31T08:50:19;3.40;;;3.10;;
13475;SDS011;6810;63.824;20.288;2023-07-31T08:52:47;3.00;;;2.70;;
13475;SDS011;6810;63.824;20.288;2023-07-31T08:55:15;3.20;;;2.93;;
13475;SDS011;6810;63.824;20.288;2023-07-31T08:57:43;2.70;;;2.50;;
13475;SDS011;6810;63.824;20.288;2023-07-31T09:00:10;3.30;;;2.80;;
13475;SDS011;6810;63.824;20.288;2023-07-31T09:05:28;3.10;;;2.90;;
13475;SDS011;6810;63.824;20.288;2023-07-31T09:07:57;3.03;;;2.77;;
13475;SDS011;6810;63.824;20.288;2023-07-31T09:10:25;3.87;;;3.20;;
13475;SDS011;6810;63.824;20.288;2023-07-31T09:12:52;3.63;;;3.10;;
13475;SDS011;6810;63.824;20.288;2023-07-31T09:15:19;3.20;;;2.90;;
13475;SDS011;6810;63.824;20.288;2023-07-31T09:18:03;3.10;;;2.80;;
13475;SDS011;6810;63.824;20.288;2023-07-31T09:20:32;2.50;;;2.30;;
13475;SDS011;6810;63.824;20.288;2023-07-31T09:23:10;3.10;;;2.80;;
13475;SDS011;6810;63.824;20.288;2023-07-31T09:25:39;3.17;;;2.70;;
13475;SDS011;6810;63.824;20.288;2023-07-31T09:28:07;2.60;;;2.40;;
13475;SDS011;6810;63.824;20.288;2023-07-31T09:30:51;2.67;;;2.27;;
13475;SDS011;6810;63.824;20.288;2023-07-31T09:33:19;2.37;;;2.17;;
13475;SDS011;6810;63.824;20.288;2023-07-31T09:35:46;2.60;;;2.40;;
13475;SDS011;6810;63.824;20.288;2023-07-31T09:38:15;3.47;;;2.30;;
13475;SDS011;6810;63.824;20.288;2023-07-31T09:40:44;2.50;;;2.30;;
13475;SDS011;6810;63.824;20.288;2023-07-31T09:43:13;2.60;;;2.40;;
13475;SDS011;6810;63.824;20.288;2023-07-31T09:45:44;2.50;;;2.30;;
13475;SDS011;6810;63.824;20.288;2023-07-31T09:48:16;2.87;;;2.43;;
13475;SDS011;6810;63.824;20.288;2023-07-31T09:50:45;2.80;;;2.37;;
13475;SDS011;6810;63.824;20.288;2023-07-31T09:53:14;2.53;;;2.33;;
13475;SDS011;6810;63.824;20.288;2023-07-31T09:55:43;2.77;;;2.50;;
13475;SDS011;6810;63.824;20.288;2023-07-31T09:58:10;2.47;;;2.13;;
13475;SDS011;6810;63.824;20.288;2023-07-31T10:00:39;2.50;;;2.30;;
13475;SDS011;6810;63.824;20.288;2023-07-31T10:03:07;3.20;;;2.47;;
13475;SDS011;6810;63.824;20.288;2023-07-31T10:05:44;2.37;;;2.20;;
13475;SDS011;6810;63.824;20.288;2023-07-31T10:08:16;2.13;;;1.93;;
13475;SDS011;6810;63.824;20.288;2023-07-31T10:10:46;2.70;;;2.50;;
13475;SDS011;6810;63.824;20.288;2023-07-31T10:13:13;3.70;;;2.70;;
13475;SDS011;6810;63.824;20.288;2023-07-31T10:15:41;2.30;;;2.07;;
13475;SDS011;6810;63.824;20.288;2023-07-31T10:18:10;2.60;;;2.40;;
13475;SDS011;6810;63.824;20.288;2023-07-31T10:20:39;2.57;;;2.20;;
13475;SDS011;6810;63.824;20.288;2023-07-31T10:23:07;2.60;;;2.30;;
13475;SDS011;6810;63.824;20.288;2023-07-31T10:25:34;2.40;;;2.20;;
13475;SDS011;6810;63.824;20.288;2023-07-31T10:28:02;2.33;;;2.10;;
13475;SDS011;6810;63.824;20.288;2023-07-31T10:30:30;2.77;;;2.20;;
13475;SDS011;6810;63.824;20.288;2023-07-31T10:33:01;2.03;;;1.87;;
13475;SDS011;6810;63.824;20.288;2023-07-31T10:35:30;2.10;;;1.97;;
13475;SDS011;6810;63.824;20.288;2023-07-31T10:38:08;2.63;;;1.80;;
13475;SDS011;6810;63.824;20.288;2023-07-31T10:40:38;1.90;;;1.80;;
13475;SDS011;6810;63.824;20.288;2023-07-31T10:43:05;1.70;;;1.60;;
13475;SDS011;6810;63.824;20.288;2023-07-31T10:45:36;1.60;;;1.50;;
13475;SDS011;6810;63.824;20.288;2023-07-31T10:48:12;1.93;;;1.67;;
13475;SDS011;6810;63.824;20.288;2023-07-31T10:50:48;3.03;;;1.80;;
13475;SDS011;6810;63.824;20.288;2023-07-31T10:56:08;3.57;;;2.20;;
13475;SDS011;6810;63.824;20.288;2023-07-31T10:58:38;2.10;;;1.90;;
13475;SDS011;6810;63.824;20.288;2023-07-31T11:01:05;2.40;;;2.20;;
13475;SDS011;6810;63.824;20.288;2023-07-31T11:03:49;2.00;;;1.90;;
13475;SDS011;6810;63.824;20.288;2023-07-31T11:06:19;2.00;;;1.90;;
13475;SDS011;6810;63.824;20.288;2023-07-31T11:08:50;2.20;;;2.10;;
13475;SDS011;6810;63.824;20.288;2023-07-31T11:11:18;1.63;;;1.53;;
13475;SDS011;6810;63.824;20.288;2023-07-31T11:13:46;1.40;;;1.30;;
13475;SDS011;6810;63.824;20.288;2023-07-31T11:16:22;1.30;;;1.20;;
13475;SDS011;6810;63.824;20.288;2023-07-31T11:18:51;1.23;;;1.13;;
13475;SDS011;6810;63.824;20.288;2023-07-31T11:21:21;1.27;;;1.17;;
13475;SDS011;6810;63.824;20.288;2023-07-31T11:23:51;1.50;;;1.10;;
13475;SDS011;6810;63.824;20.288;2023-07-31T11:26:19;1.20;;;0.80;;
13475;SDS011;6810;63.824;20.288;2023-07-31T11:28:47;1.10;;;1.00;;
13475;SDS011;6810;63.824;20.288;2023-07-31T11:31:15;1.03;;;1.00;;
13475;SDS011;6810;63.824;20.288;2023-07-31T11:33:43;1.03;;;1.03;;
13475;SDS011;6810;63.824;20.288;2023-07-31T11:36:17;1.83;;;1.17;;
13475;SDS011;6810;63.824;20.288;2023-07-31T11:38:45;2.77;;;1.33;;
13475;SDS011;6810;63.824;20.288;2023-07-31T11:41:13;1.20;;;1.10;;
13475;SDS011;6810;63.824;20.288;2023-07-31T11:43:42;1.33;;;1.23;;
13475;SDS011;6810;63.824;20.288;2023-07-31T11:46:09;1.33;;;1.20;;
13475;SDS011;6810;63.824;20.288;2023-07-31T11:48:37;1.43;;;1.33;;
13475;SDS011;6810;63.824;20.288;2023-07-31T11:51:05;1.50;;;1.40;;
13475;SDS011;6810;63.824;20.288;2023-07-31T11:53:39;1.33;;;1.30;;
13475;SDS011;6810;63.824;20.288;2023-07-31T11:56:12;1.43;;;1.33;;
13475;SDS011;6810;63.824;20.288;2023-07-31T11:58:41;1.40;;;1.30;;
13475;SDS011;6810;63.824;20.288;2023-07-31T12:01:11;1.80;;;1.70;;
13475;SDS011;6810;63.824;20.288;2023-07-31T12:03:44;1.57;;;1.47;;
13475;SDS011;6810;63.824;20.288;2023-07-31T12:06:12;2.00;;;1.63;;
13475;SDS011;6810;63.824;20.288;2023-07-31T12:08:39;2.20;;;1.87;;
13475;SDS011;6810;63.824;20.288;2023-07-31T12:11:07;2.60;;;2.07;;
13475;SDS011;6810;63.824;20.288;2023-07-31T12:13:38;2.00;;;1.90;;
13475;SDS011;6810;63.824;20.288;2023-07-31T12:16:05;2.17;;;1.93;;
13475;SDS011;6810;63.824;20.288;2023-07-31T12:18:34;2.23;;;2.13;;
13475;SDS011;6810;63.824;20.288;2023-07-31T12:21:04;3.37;;;2.07;;
13475;SDS011;6810;63.824;20.288;2023-07-31T12:23:33;2.07;;;1.97;;
13475;SDS011;6810;63.824;20.288;2023-07-31T12:31:13;2.03;;;1.87;;
13475;SDS011;6810;63.824;20.288;2023-07-31T12:33:44;1.93;;;1.83;;
13475;SDS011;6810;63.824;20.288;2023-07-31T12:36:16;2.70;;;2.00;;
13475;SDS011;6810;63.824;20.288;2023-07-31T12:38:45;2.73;;;2.20;;
13475;SDS011;6810;63.824;20.288;2023-07-31T12:41:12;2.53;;;2.33;;
13475;SDS011;6810;63.824;20.288;2023-07-31T12:43:40;2.50;;;2.30;;
13475;SDS011;6810;63.824;20.288;2023-07-31T12:46:08;2.37;;;2.10;;
13475;SDS011;6810;63.824;20.288;2023-07-31T12:48:39;2.30;;;2.10;;
13475;SDS011;6810;63.824;20.288;2023-07-31T12:51:07;2.07;;;1.90;;
13475;SDS011;6810;63.824;20.288;2023-07-31T12:53:34;2.23;;;2.10;;
13475;SDS011;6810;63.824;20.288;2023-07-31T12:56:02;2.20;;;1.90;;
13475;SDS011;6810;63.824;20.288;2023-07-31T12:58:29;2.20;;;1.90;;
13475;SDS011;6810;63.824;20.288;2023-07-31T13:00:56;2.10;;;2.00;;
13475;SDS011;6810;63.824;20.288;2023-07-31T13:03:23;2.00;;;1.90;;
13475;SDS011;6810;63.824;20.288;2023-07-31T13:05:52;1.80;;;1.70;;
13475;SDS011;6810;63.824;20.288;2023-07-31T13:08:19;2.57;;;1.70;;
13475;SDS011;6810;63.824;20.288;2023-07-31T13:10:47;1.80;;;1.70;;
13475;SDS011;6810;63.824;20.288;2023-07-31T13:13:14;2.03;;;1.83;;
13475;SDS011;6810;63.824;20.288;2023-07-31T13:15:41;1.70;;;1.60;;
13475;SDS011;6810;63.824;20.288;2023-07-31T13:18:09;1.90;;;1.70;;
13475;SDS011;6810;63.824;20.288;2023-07-31T13:20:36;1.60;;;1.50;;
13475;SDS011;6810;63.824;20.288;2023-07-31T13:23:03;1.77;;;1.67;;
13475;SDS011;6810;63.824;20.288;2023-07-31T13:25:30;1.80;;;1.70;;
13475;SDS011;6810;63.824;20.288;2023-07-31T13:27:57;1.70;;;1.60;;
13475;SDS011;6810;63.824;20.288;2023-07-31T13:30:28;2.00;;;1.90;;
13475;SDS011;6810;63.824;20.288;2023-07-31T13:32:55;3.50;;;2.00;;
13475;SDS011;6810;63.824;20.288;2023-07-31T13:35:22;1.60;;;1.50;;
13475;SDS011;6810;63.824;20.288;2023-07-31T13:37:49;2.13;;;1.80;;
13475;SDS011;6810;63.824;20.288;2023-07-31T13:40:16;2.60;;;1.90;;
13475;SDS011;6810;63.824;20.288;2023-07-31T13:42:44;1.90;;;1.80;;
13475;SDS011;6810;63.824;20.288;2023-07-31T13:45:11;3.33;;;1.67;;
13475;SDS011;6810;63.824;20.288;2023-07-31T13:47:38;1.80;;;1.70;;
13475;SDS011;6810;63.824;20.288;2023-07-31T13:50:05;2.90;;;2.20;;
13475;SDS011;6810;63.824;20.288;2023-07-31T13:52:33;1.80;;;1.70;;
13475;SDS011;6810;63.824;20.288;2023-07-31T13:55:00;2.30;;;1.50;;
13475;SDS011;6810;63.824;20.288;2023-07-31T13:57:27;1.70;;;1.60;;
13475;SDS011;6810;63.824;20.288;2023-07-31T13:59:55;1.50;;;1.40;;
13475;SDS011;6810;63.824;20.288;2023-07-31T14:02:22;1.90;;;1.30;;
13475;SDS011;6810;63.824;20.288;2023-07-31T14:04:50;3.07;;;1.60;;
13475;SDS011;6810;63.824;20.288;2023-07-31T14:07:17;1.80;;;1.40;;
13475;SDS011;6810;63.824;20.288;2023-07-31T14:09:44;2.30;;;1.60;;
13475;SDS011;6810;63.824;20.288;2023-07-31T14:12:11;2.67;;;1.80;;
13475;SDS011;6810;63.824;20.288;2023-07-31T14:14:40;1.60;;;1.50;;
13475;SDS011;6810;63.824;20.288;2023-07-31T14:17:07;2.17;;;1.47;;
13475;SDS011;6810;63.824;20.288;2023-07-31T14:19:34;1.70;;;1.33;;
13475;SDS011;6810;63.824;20.288;2023-07-31T14:22:02;1.40;;;1.30;;
13475;SDS011;6810;63.824;20.288;2023-07-31T14:24:37;1.50;;;1.40;;
13475;SDS011;6810;63.824;20.288;2023-07-31T14:27:05;1.37;;;1.27;;
13475;SDS011;6810;63.824;20.288;2023-07-31T14:29:32;1.50;;;1.30;;
13475;SDS011;6810;63.824;20.288;2023-07-31T14:31:59;1.40;;;1.30;;
13475;SDS011;6810;63.824;20.288;2023-07-31T14:34:27;1.50;;;1.40;;
13475;SDS011;6810;63.824;20.288;2023-07-31T14:36:54;1.40;;;1.30;;
13475;SDS011;6810;63.824;20.288;2023-07-31T14:39:21;1.47;;;1.10;;
13475;SDS011;6810;63.824;20.288;2023-07-31T14:41:48;1.50;;;1.40;;
13475;SDS011;6810;63.824;20.288;2023-07-31T14:44:15;1.80;;;1.70;;
13475;SDS011;6810;63.824;20.288;2023-07-31T14:46:42;1.50;;;1.27;;
13475;SDS011;6810;63.824;20.288;2023-07-31T14:49:10;1.30;;;1.20;;
13475;SDS011;6810;63.824;20.288;2023-07-31T14:51:37;1.43;;;1.30;;
13475;SDS011;6810;63.824;20.288;2023-07-31T14:54:04;1.80;;;1.37;;
13475;SDS011;6810;63.824;20.288;2023-07-31T14:56:31;1.90;;;1.30;;
13475;SDS011;6810;63.824;20.288;2023-07-31T14:58:58;1.80;;;1.70;;
13475;SDS011;6810;63.824;20.288;2023-07-31T15:01:25;1.93;;;1.70;;
13475;SDS011;6810;63.824;20.288;2023-07-31T15:03:53;2.47;;;1.90;;
13475;SDS011;6810;63.824;20.288;2023-07-31T15:06:20;2.20;;;2.00;;
13475;SDS011;6810;63.824;20.288;2023-07-31T15:08:47;4.30;;;2.67;;